EDT,Max TemperatureF,Mean TemperatureF,Min TemperatureF,Max Dew PointF,MeanDew PointF,Min DewpointF,Max Humidity, Mean Humidity, Min Humidity, Max Sea Level PressureIn, Mean Sea Level PressureIn, Min Sea Level PressureIn, Max VisibilityMiles, Mean VisibilityMiles, Min VisibilityMiles, Max Wind SpeedMPH, Mean Wind SpeedMPH, Max Gust SpeedMPH,PrecipitationIn, CloudCover, Events, WindDirDegrees
2013-7-1,79,73,67,71,69,67,100,88,71,30.01,29.92,29.86,10,9,3,12,2,22,0.10,4,Rain,157
2013-7-2,76,73,70,74,71,69,100,98,86,30.18,30.09,30.00,10,10,3,12,6,17,0.14,6,Rain,162
2013-7-3,79,74,70,77,73,71,100,98,80,30.24,30.21,30.15,10,8,1,7,3,,0.77,5,Rain,157
2013-7-4,85,78,72,75,72,68,100,88,61,30.28,30.24,30.18,10,10,5,12,5,22,0.00,4,Rain,153
2013-7-5,82,76,70,74,72,69,100,90,68,30.28,30.25,30.19,10,9,3,9,5,16,0.23,3,Rain,167
2013-7-6,83,76,68,74,71,68,100,90,64,30.27,30.22,30.14,10,8,1,8,2,20,0.34,3,Rain,168
2013-7-7,81,76,70,75,73,70,100,92,72,30.21,30.16,30.10,10,9,4,9,2,,0.01,3,Rain,180
2013-7-8,82,76,70,76,72,68,100,86,62,30.21,30.17,30.13,10,9,2,8,1,,0.03,2,Rain,174
2013-7-9,85,78,70,75,73,70,100,88,65,30.18,30.14,30.07,10,8,2,8,1,,0.00,2,,173
2013-7-10,84,76,69,74,72,70,100,88,63,30.13,30.05,29.96,10,8,2,9,2,18,0.64,2,Rain,196
2013-7-11,77,72,68,76,73,68,100,99,89,29.99,29.95,29.90,10,8,4,6,1,,0.10,4,Rain,192
2013-7-12,76,71,66,72,68,66,100,91,72,30.05,29.96,29.91,10,8,2,9,2,16,0.00,4,,43
2013-7-13,79,72,66,75,70,67,100,95,77,30.15,30.11,30.03,10,8,4,8,2,17,0.08,6,Rain,52
2013-7-14,85,78,70,74,71,69,100,88,59,30.31,30.26,30.15,10,9,4,12,6,16,0.09,3,Rain,99
2013-7-15,86,76,67,74,69,67,100,80,52,30.35,30.32,30.28,10,9,3,7,1,,0.00,0,,82
2013-7-16,88,77,66,77,71,66,100,83,51,30.32,30.28,30.23,10,8,2,5,0,,0.00,0,Rain,273
2013-7-17,89,80,70,77,73,70,100,89,60,30.27,30.22,30.16,10,10,3,7,1,20,0.07,0,Rain,18
2013-7-18,89,78,68,77,73,69,100,87,60,30.19,30.15,30.06,10,8,2,9,0,,0.00,0,Rain,176
2013-7-19,86,78,70,78,73,71,100,85,61,30.13,30.08,30.01,10,7,1,9,2,,0.00,1,,197
2013-7-20,84,78,72,75,73,70,100,92,70,30.06,30.02,29.95,10,8,2,8,3,,0.08,2,Rain,195
2013-7-21,85,78,70,76,73,71,100,94,65,30.03,29.99,29.94,10,7,2,6,1,,0.05,4,Rain,214
2013-7-22,82,76,69,75,71,69,100,88,68,29.99,29.93,29.86,10,8,2,9,1,,0.01,3,,186
2013-7-23,86,77,68,74,70,65,100,80,50,29.87,29.83,29.77,10,10,5,8,1,,0.00,0,,248
2013-7-24,88,77,66,72,69,66,100,78,47,29.90,29.82,29.78,10,8,2,7,1,17,0.18,0,Rain,24
2013-7-25,80,72,65,70,67,63,100,85,62,30.06,29.96,29.86,10,9,2,7,2,16,0.04,2,Rain,49
2013-7-26,81,72,64,70,66,63,100,82,58,30.14,30.08,30.04,10,8,2,8,1,,0.00,1,,159
2013-7-27,75,70,66,72,69,66,100,98,85,30.07,30.01,29.95,10,8,1,7,2,,1.10,5,Rain,143
2013-7-28,82,74,67,73,69,66,100,85,62,30.03,29.97,29.94,10,8,2,10,1,16,0.00,4,Rain,217
2013-7-29,82,74,66,69,65,61,100,77,50,30.19,30.11,30.03,10,8,1,5,1,,0.01,0,,345
2013-7-30,81,71,61,71,65,60,100,81,52,30.25,30.20,30.16,10,10,7,6,1,,0.00,0,,97
2013-7-31,78,73,68,74,70,67,100,93,70,30.18,30.11,30.02,10,7,1,8,1,,1.40,1,Rain,176